00:06
Airports
History
Links
Donate
Help me keep this website running!
Information on this page is community maintained and may be outdated or inaccurate and is intended for simulator navigating and reference only!
Always use approved charts for navigating.
TNCC
Curacao Hato
Curacao Hato (TNCC)
Willemstad, Curaçao,
(C)
Lat/Lng:12° 11' 19.87" N / 68° 57' 35.29" W
12.188853 / -68.959803
Elevation:29'ft 9mMSL
ID / ICAO:TNCC
Runways:1
Longest:(11-29) 3,411.8m 11,194ft Asphalt
Controlled:Yes
Distance To
Airport ID:
Airport Radio Frequencies
Tower: 118.3
Approach: 119.6
Nearby VORs <50NM
Nearby NDBs
METARUpdated 09-26-16 23:00 GMT
Altimeter: 29.83
Visibility: 6.2 statute miles
Wind: 11 knots (100°)
Temp: 29°c 84°f
Humidity: 79.1%

METAR: TNCC 262300Z 10011KT 9999 FEW018 29/25 Q1010 NOSIG

(Powered by phpweather)
Runway 11 / 29
Dimensions:3411.8 x 60.1m 11194' x 197'ft
Surface:Asphalt
Edge Lights:Medium intensity
Runway 11 [A]Runway 29 [B]
Heading:102°TH 282°TH
Lat:
Lng:
12° 11' 31.58"N
68° 58' 30.51"W
12° 11' 8.16"N
68° 56' 40.07"W
Google Map
Nearby Airports
(C) Bonaire Flamingo 46.9 NM
TNCB (WX) E 94°
(U) PUERTO CUMAREBO 52.5 NM
SVRB SSW 207°
(C) JOSE LEONARDO CHIRINOS 72.4 NM
SVCR (WX) SW 222°
(C) REINA BEATRIX INTL 74.4 NM
TNCA (WX) WNW 286°
(C) JOSEFA CAMEJO 85.3 NM
SVJC (WX) WSW 250°
(U) PUNTA BRAVA 105.6 NM
SV04 SSE 156°
(C) Churuguara 105.9 NM
SVHH SSW 205°
VFR Chart
Flight Planning at SkyVector.com